^^

..:: Storico WU ::..




Lo storico viene creato da WUnderground con i dati che la stazione Meteomincio invia al loro server. L' aggiornamento viene fatto ogni 5 minuti circa, tuttavia possono esserci intervalli pił ampi a causa di errori, interruzioni di servizio o problemi nell' invio tramite FTP.


Storico stazione MeteoMincio
Giorno Sommario per Settembre 21, 2022 Unità:  Inglese    Metrico   Entrambi
Giorno Settimana Mese Anno
  Max: Min: Media:
Temperatura: 71.6 °F 53.6 °F 61 °F
Dew Point: 55.4 °F 46.4 °F 50.7 °F
Umidità: 86% 46% 71%
Velocità vento: 16.8mph 1.2mph 7.5mph
Raffica: 23mph - -
Direzione- - East
Pressione: 30.2 in 30.1 in -
Precipitazioni: 0 in    
 
 
Tabulato Dati per Settembre 21, 2022
Ora Temperatura Dew Point Pressione Direzione Velocità vento Raffica Umidità Intensità pioggia (oraria) Info solare Situazione
00:04 59 °F 53.6 °F 30.1 in NE 3.1 mph 3.7 mph 85% 0 in 0.00 W/m2 unknown
00:09 59 °F 53.6 °F 30.1 in NE 3.1 mph 3.7 mph 85% 0 in 0.00 W/m2 unknown
00:14 59 °F 53.6 °F 30.1 in ENE 3.1 mph 3.7 mph 85% 0 in 0.00 W/m2 unknown
00:19 57.2 °F 53.6 °F 30.1 in ENE 3.1 mph 5 mph 85% 0 in 0.00 W/m2 unknown
00:24 57.2 °F 53.6 °F 30.1 in ENE 3.7 mph 5 mph 86% 0 in 0.00 W/m2 unknown
00:29 57.2 °F 53.6 °F 30.1 in ENE 3.1 mph 5 mph 85% 0 in 0.00 W/m2 unknown
00:34 57.2 °F 53.6 °F 30.1 in ENE 3.1 mph 5 mph 85% 0 in 0.00 W/m2 unknown
00:39 57.2 °F 53.6 °F 30.1 in ENE 3.7 mph 5 mph 85% 0 in 0.00 W/m2 unknown
00:44 57.2 °F 53.6 °F 30.1 in East 3.1 mph 5 mph 85% 0 in 0.00 W/m2 unknown
00:49 57.2 °F 53.6 °F 30.1 in ENE 3.7 mph 5 mph 85% 0 in 0.00 W/m2 unknown
00:54 57.2 °F 53.6 °F 30.1 in ENE 3.7 mph 5 mph 85% 0 in 0.00 W/m2 unknown
00:59 57.2 °F 53.6 °F 30.1 in ENE 3.1 mph 5 mph 85% 0 in 0.00 W/m2 unknown
01:04 57.2 °F 53.6 °F 30.1 in ENE 5.6 mph 8.1 mph 84% 0 in 0.00 W/m2 unknown
01:09 57.2 °F 53.6 °F 30.1 in East 6.2 mph 8.1 mph 84% 0 in 0.00 W/m2 unknown
01:14 57.2 °F 51.8 °F 30.1 in East 2.5 mph 5 mph 84% 0 in 0.00 W/m2 unknown
01:19 57.2 °F 51.8 °F 30.1 in ENE 3.1 mph 5 mph 84% 0 in 0.00 W/m2 unknown
01:24 57.2 °F 51.8 °F 30.1 in East 3.1 mph 5 mph 84% 0 in 0.00 W/m2 unknown
01:29 57.2 °F 51.8 °F 30.1 in East 3.1 mph 5 mph 84% 0 in 0.00 W/m2 unknown
01:34 57.2 °F 51.8 °F 30.1 in ENE 3.1 mph 5 mph 84% 0 in 0.00 W/m2 unknown
01:39 57.2 °F 51.8 °F 30.1 in ENE 3.1 mph 5 mph 84% 0 in 0.00 W/m2 unknown
01:44 57.2 °F 51.8 °F 30.1 in ENE 3.1 mph 5 mph 84% 0 in 0.00 W/m2 unknown
01:49 57.2 °F 51.8 °F 30.1 in ENE 3.1 mph 5 mph 84% 0 in 0.00 W/m2 unknown
01:54 57.2 °F 51.8 °F 30.1 in ENE 3.1 mph 5 mph 83% 0 in 0.00 W/m2 unknown
01:59 57.2 °F 51.8 °F 30.1 in NE 3.1 mph 3.7 mph 83% 0 in 0.00 W/m2 unknown
02:04 57.2 °F 51.8 °F 30.1 in NE 3.1 mph 3.7 mph 83% 0 in 0.00 W/m2 unknown
02:09 57.2 °F 51.8 °F 30.1 in NE 3.1 mph 3.7 mph 84% 0 in 0.00 W/m2 unknown
02:14 57.2 °F 51.8 °F 30.1 in NE 3.1 mph 3.7 mph 84% 0 in 0.00 W/m2 unknown
02:19 57.2 °F 51.8 °F 30.1 in NE 3.1 mph 3.7 mph 84% 0 in 0.00 W/m2 unknown
02:24 57.2 °F 51.8 °F 30.1 in NE 3.1 mph 3.7 mph 84% 0 in 0.00 W/m2 unknown
02:29 57.2 °F 51.8 °F 30.1 in NE 5 mph 6.8 mph 85% 0 in 0.00 W/m2 unknown
02:34 57.2 °F 51.8 °F 30.1 in NE 4.3 mph 6.8 mph 84% 0 in 0.00 W/m2 unknown
02:39 57.2 °F 51.8 °F 30.1 in ENE 2.5 mph 5 mph 84% 0 in 0.00 W/m2 unknown
02:44 57.2 °F 51.8 °F 30.1 in ENE 5 mph 6.8 mph 85% 0 in 0.00 W/m2 unknown
02:49 57.2 °F 51.8 °F 30.1 in ENE 3.1 mph 4.3 mph 84% 0 in 0.00 W/m2 unknown
02:54 57.2 °F 51.8 °F 30.1 in ENE 2.5 mph 3.7 mph 85% 0 in 0.00 W/m2 unknown
02:59 57.2 °F 51.8 °F 30.1 in ENE 3.1 mph 5 mph 85% 0 in 0.00 W/m2 unknown
03:04 57.2 °F 51.8 °F 30.1 in ENE 3.1 mph 5 mph 86% 0 in 0.00 W/m2 unknown
03:09 57.2 °F 51.8 °F 30.1 in ENE 3.1 mph 5 mph 86% 0 in 0.00 W/m2 unknown
03:14 57.2 °F 51.8 °F 30.1 in ENE 3.7 mph 6.2 mph 86% 0 in 0.00 W/m2 unknown
03:19 57.2 °F 51.8 °F 30.1 in ENE 3.1 mph 6.2 mph 86% 0 in 0.00 W/m2 unknown
03:24 57.2 °F 51.8 °F 30.1 in ENE 3.7 mph 5 mph 86% 0 in 0.00 W/m2 unknown
03:29 55.4 °F 51.8 °F 30.1 in ENE 4.3 mph 5 mph 86% 0 in 0.00 W/m2 unknown
03:34 55.4 °F 51.8 °F 30.1 in ENE 3.7 mph 5 mph 86% 0 in 0.00 W/m2 unknown
03:39 55.4 °F 51.8 °F 30.1 in ENE 3.7 mph 5 mph 86% 0 in 0.00 W/m2 unknown
03:44 57.2 °F 51.8 °F 30.1 in ENE 5 mph 6.8 mph 86% 0 in 0.00 W/m2 unknown
03:49 57.2 °F 51.8 °F 30.1 in ENE 5 mph 8.1 mph 86% 0 in 0.00 W/m2 unknown
03:54 57.2 °F 51.8 °F 30.1 in ENE 6.2 mph 8.1 mph 86% 0 in 0.00 W/m2 unknown
03:59 57.2 °F 51.8 °F 30.1 in ENE 7.5 mph 10.6 mph 86% 0 in 0.00 W/m2 unknown
04:04 57.2 °F 53.6 °F 30.1 in ENE 9.3 mph 13 mph 86% 0 in 0.00 W/m2 unknown
04:09 57.2 °F 53.6 °F 30.1 in ENE 10.6 mph 17.4 mph 86% 0 in 0.00 W/m2 unknown
04:14 59 °F 53.6 °F 30.1 in ENE 13.7 mph 19.9 mph 86% 0 in 0.00 W/m2 unknown
04:19 59 °F 53.6 °F 30.1 in ENE 14.3 mph 21.7 mph 85% 0 in 0.00 W/m2 unknown
04:24 59 °F 55.4 °F 30.1 in ENE 14.3 mph 21.7 mph 85% 0 in 0.00 W/m2 unknown
04:29 59 °F 55.4 °F 30.1 in ENE 13.7 mph 19.9 mph 85% 0 in 0.00 W/m2 unknown
04:34 59 °F 53.6 °F 30.1 in ENE 13 mph 19.9 mph 84% 0 in 0.00 W/m2 unknown
04:39 59 °F 53.6 °F 30.1 in ENE 15.5 mph 21.1 mph 84% 0 in 0.00 W/m2 unknown
04:44 59 °F 53.6 °F 30.1 in ENE 14.3 mph 21.1 mph 83% 0 in 0.00 W/m2 unknown
04:49 59 °F 53.6 °F 30.1 in ENE 13.7 mph 19.9 mph 81% 0 in 0.00 W/m2 unknown
04:54 59 °F 53.6 °F 30.1 in ENE 11.8 mph 17.4 mph 81% 0 in 0.00 W/m2 unknown
04:59 59 °F 51.8 °F 30.1 in ENE 13 mph 17.4 mph 81% 0 in 0.00 W/m2 unknown
05:04 59 °F 51.8 °F 30.1 in ENE 13 mph 17.4 mph 81% 0 in 0.00 W/m2 unknown
05:09 57.2 °F 51.8 °F 30.1 in ENE 11.2 mph 16.2 mph 82% 0 in 0.00 W/m2 unknown
05:14 57.2 °F 51.8 °F 30.1 in ENE 13.7 mph 19.9 mph 82% 0 in 0.00 W/m2 unknown
05:19 57.2 °F 51.8 °F 30.1 in ENE 15.5 mph 21.7 mph 82% 0 in 0.00 W/m2 unknown
05:24 57.2 °F 51.8 °F 30.1 in ENE 16.2 mph 21.7 mph 82% 0 in 0.00 W/m2 unknown
05:29 57.2 °F 51.8 °F 30.1 in ENE 13 mph 19.9 mph 83% 0 in 0.00 W/m2 unknown
05:34 57.2 °F 51.8 °F 30.1 in ENE 12.4 mph 19.9 mph 83% 0 in 0.00 W/m2 unknown
05:39 57.2 °F 51.8 °F 30.1 in ENE 11.8 mph 16.8 mph 83% 0 in 0.00 W/m2 unknown
05:44 57.2 °F 51.8 °F 30.1 in ENE 11.8 mph 17.4 mph 84% 0 in 0.00 W/m2 unknown
05:49 57.2 °F 51.8 °F 30.1 in ENE 13.7 mph 18.6 mph 84% 0 in 0.00 W/m2 unknown
05:54 57.2 °F 51.8 °F 30.1 in ENE 11.8 mph 18 mph 84% 0 in 0.00 W/m2 unknown
05:59 57.2 °F 51.8 °F 30.1 in ENE 12.4 mph 18.6 mph 84% 0 in 0.00 W/m2 unknown
06:04 57.2 °F 51.8 °F 30.1 in ENE 13 mph 18.6 mph 83% 0 in 0.00 W/m2 unknown
06:09 57.2 °F 51.8 °F 30.1 in ENE 12.4 mph 18.6 mph 83% 0 in 0.00 W/m2 unknown
06:14 57.2 °F 51.8 °F 30.1 in ENE 12.4 mph 19.9 mph 83% 0 in 0.00 W/m2 unknown
06:19 57.2 °F 51.8 °F 30.1 in ENE 13.7 mph 19.9 mph 83% 0 in 0.00 W/m2 unknown
06:24 57.2 °F 51.8 °F 30.1 in ENE 13 mph 19.9 mph 83% 0 in 0.00 W/m2 unknown
06:29 57.2 °F 51.8 °F 30.1 in ENE 11.2 mph 14.9 mph 83% 0 in 0.00 W/m2 unknown
06:34 57.2 °F 51.8 °F 30.1 in ENE 12.4 mph 14.9 mph 83% 0 in 0.00 W/m2 unknown
06:39 57.2 °F 51.8 °F 30.1 in ENE 12.4 mph 17.4 mph 83% 0 in 0.00 W/m2 unknown
06:44 57.2 °F 51.8 °F 30.1 in ENE 11.8 mph 16.8 mph 83% 0 in 0.00 W/m2 unknown
06:49 57.2 °F 51.8 °F 30.1 in ENE 10.6 mph 16.2 mph 83% 0 in 0.00 W/m2 unknown
06:54 57.2 °F 51.8 °F 30.1 in ENE 10.6 mph 14.9 mph 83% 0 in 0.00 W/m2 unknown
06:59 57.2 °F 51.8 °F 30.1 in ENE 11.2 mph 14.9 mph 83% 0 in 0.00 W/m2 unknown
07:04 57.2 °F 51.8 °F 30.1 in ENE 10.6 mph 14.9 mph 83% 0 in 0.00 W/m2 unknown
07:09 57.2 °F 51.8 °F 30.1 in ENE 9.9 mph 14.3 mph 83% 0 in 0.00 W/m2 unknown
07:14 57.2 °F 51.8 °F 30.1 in ENE 10.6 mph 14.9 mph 83% 0 in 0.00 W/m2 unknown
07:19 57.2 °F 51.8 °F 30.1 in ENE 9.9 mph 14.9 mph 83% 0 in 7.00 W/m2 unknown
07:24 57.2 °F 51.8 °F 30.1 in ENE 10.6 mph 16.2 mph 83% 0 in 12.00 W/m2 unknown
07:29 57.2 °F 51.8 °F 30.1 in ENE 8.7 mph 16.2 mph 83% 0 in 18.00 W/m2 unknown
07:34 57.2 °F 51.8 °F 30.1 in ENE 9.3 mph 13 mph 82% 0 in 23.00 W/m2 unknown
07:39 57.2 °F 51.8 °F 30.1 in ENE 8.7 mph 13 mph 82% 0 in 26.00 W/m2 unknown
07:44 57.2 °F 51.8 °F 30.1 in ENE 8.7 mph 13 mph 82% 0 in 28.00 W/m2 unknown
07:49 57.2 °F 51.8 °F 30.1 in ENE 9.3 mph 13 mph 81% 0 in 28.00 W/m2 unknown
07:54 57.2 °F 51.8 °F 30.1 in ENE 8.1 mph 13 mph 80% 0 in 25.00 W/m2 unknown
07:59 57.2 °F 51.8 °F 30.1 in ENE 8.7 mph 11.8 mph 79% 0 in 28.00 W/m2 unknown
08:04 57.2 °F 51.8 °F 30.1 in ENE 8.7 mph 13 mph 79% 0 in 32.00 W/m2 unknown
08:09 59 °F 51.8 °F 30.1 in ENE 12.4 mph 16.2 mph 78% 0 in 32.00 W/m2 unknown
08:14 59 °F 51.8 °F 30.1 in ENE 8.7 mph 16.2 mph 77% 0 in 28.00 W/m2 unknown
08:19 59 °F 51.8 °F 30.1 in ENE 8.7 mph 13 mph 77% 0 in 26.00 W/m2 unknown
08:24 57.2 °F 51.8 °F 30.2 in ENE 8.1 mph 11.8 mph 78% 0 in 25.00 W/m2 unknown
08:29 57.2 °F 51.8 °F 30.2 in NE 9.9 mph 14.3 mph 79% 0 in 25.00 W/m2 unknown
08:34 57.2 °F 51.8 °F 30.2 in ENE 11.2 mph 16.2 mph 79% 0 in 26.00 W/m2 unknown
08:39 57.2 °F 51.8 °F 30.2 in ENE 11.2 mph 16.2 mph 80% 0 in 26.00 W/m2 unknown
08:44 57.2 °F 51.8 °F 30.2 in ENE 11.8 mph 14.9 mph 81% 0 in 28.00 W/m2 unknown
08:49 57.2 °F 51.8 °F 30.2 in East 9.9 mph 14.9 mph 82% 0 in 35.00 W/m2 unknown
08:54 57.2 °F 51.8 °F 30.2 in East 8.1 mph 11.8 mph 83% 0 in 46.00 W/m2 unknown
08:59 57.2 °F 51.8 °F 30.2 in East 7.5 mph 11.8 mph 82% 0 in 62.00 W/m2 unknown
09:04 57.2 °F 51.8 °F 30.2 in ENE 7.5 mph 11.8 mph 83% 0 in 79.00 W/m2 unknown
09:09 57.2 °F 51.8 °F 30.2 in ENE 8.7 mph 11.8 mph 83% 0 in 88.00 W/m2 unknown
09:14 57.2 °F 51.8 °F 30.2 in East 8.7 mph 11.8 mph 83% 0 in 84.00 W/m2 unknown
09:19 57.2 °F 51.8 °F 30.2 in East 8.1 mph 13 mph 83% 0 in 79.00 W/m2 unknown
09:24 57.2 °F 51.8 °F 30.2 in ESE 8.7 mph 13 mph 82% 0 in 72.00 W/m2 unknown
09:29 57.2 °F 51.8 °F 30.2 in East 8.1 mph 11.8 mph 83% 0 in 77.00 W/m2 unknown
09:34 57.2 °F 51.8 °F 30.2 in East 7.5 mph 11.8 mph 83% 0 in 118.00 W/m2 unknown
09:39 57.2 °F 53.6 °F 30.2 in ESE 5.6 mph 8.7 mph 84% 0 in 144.00 W/m2 unknown
09:44 59 °F 53.6 °F 30.2 in East 5 mph 8.1 mph 84% 0 in 141.00 W/m2 unknown
09:49 59 °F 53.6 °F 30.2 in East 7.5 mph 11.8 mph 83% 0 in 158.00 W/m2 unknown
09:54 59 °F 53.6 °F 30.2 in East 8.1 mph 11.8 mph 81% 0 in 176.00 W/m2 unknown
09:59 59 °F 53.6 °F 30.2 in ESE 8.7 mph 11.8 mph 79% 0 in 185.00 W/m2 unknown
10:04 60.8 °F 53.6 °F 30.2 in East 8.7 mph 11.8 mph 77% 0 in 304.00 W/m2 unknown
10:09 60.8 °F 53.6 °F 30.2 in East 7.5 mph 11.8 mph 76% 0 in 244.00 W/m2 unknown
10:14 60.8 °F 53.6 °F 30.2 in East 6.8 mph 11.8 mph 75% 0 in 241.00 W/m2 unknown
10:19 60.8 °F 53.6 °F 30.2 in East 7.5 mph 11.8 mph 75% 0 in 267.00 W/m2 unknown
10:24 60.8 °F 53.6 °F 30.2 in East 10.6 mph 14.3 mph 74% 0 in 302.00 W/m2 unknown
10:29 62.6 °F 53.6 °F 30.2 in East 8.7 mph 14.3 mph 74% 0 in 343.00 W/m2 unknown
10:34 62.6 °F 53.6 °F 30.2 in ENE 8.7 mph 13 mph 73% 0 in 343.00 W/m2 unknown
10:39 62.6 °F 53.6 °F 30.2 in East 8.7 mph 11.8 mph 73% 0 in 338.00 W/m2 unknown
10:44 62.6 °F 53.6 °F 30.2 in ENE 8.7 mph 11.8 mph 72% 0 in 327.00 W/m2 unknown
10:49 62.6 °F 53.6 °F 30.2 in East 11.8 mph 16.2 mph 73% 0 in 461.00 W/m2 unknown
10:54 64.4 °F 53.6 °F 30.2 in East 13 mph 16.8 mph 69% 0 in 596.00 W/m2 unknown
10:59 64.4 °F 53.6 °F 30.2 in ENE 12.4 mph 16.2 mph 67% 0 in 582.00 W/m2 unknown
11:04 64.4 °F 55.4 °F 30.2 in East 11.2 mph 16.2 mph 69% 0 in 561.00 W/m2 unknown
11:09 66.2 °F 53.6 °F 30.2 in ENE 12.4 mph 17.4 mph 68% 0 in 606.00 W/m2 unknown
11:14 66.2 °F 53.6 °F 30.2 in ENE 12.4 mph 21.1 mph 65% 0 in 610.00 W/m2 unknown
11:19 66.2 °F 53.6 °F 30.2 in ENE 13 mph 21.1 mph 64% 0 in 599.00 W/m2 unknown
11:24 66.2 °F 53.6 °F 30.2 in ENE 13 mph 21.1 mph 62% 0 in 621.00 W/m2 unknown
11:29 66.2 °F 53.6 °F 30.2 in East 12.4 mph 19.9 mph 62% 0 in 621.00 W/m2 unknown
11:34 66.2 °F 51.8 °F 30.2 in ENE 16.8 mph 23 mph 61% 0 in 656.00 W/m2 unknown
11:39 66.2 °F 51.8 °F 30.2 in ENE 14.9 mph 23 mph 61% 0 in 473.00 W/m2 unknown
11:44 66.2 °F 51.8 °F 30.2 in East 14.3 mph 17.4 mph 61% 0 in 497.00 W/m2 unknown
11:49 66.2 °F 51.8 °F 30.2 in East 11.8 mph 16.8 mph 61% 0 in 408.00 W/m2 unknown
11:54 66.2 °F 51.8 °F 30.2 in East 11.2 mph 16.2 mph 61% 0 in 373.00 W/m2 unknown
11:59 66.2 °F 53.6 °F 30.2 in East 9.9 mph 16.2 mph 63% 0 in 237.00 W/m2 unknown
12:04 66.2 °F 51.8 °F 30.2 in East 11.8 mph 14.9 mph 63% 0 in 279.00 W/m2 unknown
12:09 66.2 °F 53.6 °F 30.2 in East 11.8 mph 14.9 mph 64% 0 in 269.00 W/m2 unknown
12:14 66.2 °F 53.6 °F 30.2 in East 9.9 mph 14.9 mph 64% 0 in 269.00 W/m2 unknown
12:19 66.2 °F 51.8 °F 30.2 in East 10.6 mph 14.9 mph 61% 0 in 338.00 W/m2 unknown
12:24 66.2 °F 51.8 °F 30.2 in East 10.6 mph 14.3 mph 61% 0 in 496.00 W/m2 unknown
12:29 66.2 °F 51.8 °F 30.2 in East 11.8 mph 16.2 mph 61% 0 in 691.00 W/m2 unknown
12:34 68 °F 53.6 °F 30.2 in East 11.8 mph 16.2 mph 60% 0 in 691.00 W/m2 unknown
12:39 68 °F 53.6 °F 30.2 in ESE 9.9 mph 14.9 mph 59% 0 in 752.00 W/m2 unknown
12:44 68 °F 53.6 °F 30.2 in ESE 9.9 mph 14.9 mph 60% 0 in 752.00 W/m2 unknown
12:49 68 °F 51.8 °F 30.2 in East 11.8 mph 14.9 mph 58% 0 in 738.00 W/m2 unknown
12:54 68 °F 53.6 °F 30.2 in East 11.2 mph 14.9 mph 60% 0 in 719.00 W/m2 unknown
12:59 68 °F 53.6 °F 30.2 in ESE 10.6 mph 16.2 mph 59% 0 in 742.00 W/m2 unknown
13:04 68 °F 53.6 °F 30.2 in East 11.8 mph 16.2 mph 57% 0 in 759.00 W/m2 unknown
13:09 68 °F 51.8 °F 30.2 in ESE 11.8 mph 16.2 mph 57% 0 in 803.00 W/m2 unknown
13:14 69.8 °F 53.6 °F 30.2 in ESE 8.1 mph 16.2 mph 58% 0 in 805.00 W/m2 unknown
13:19 69.8 °F 51.8 °F 30.2 in ESE 9.9 mph 14.3 mph 55% 0 in 744.00 W/m2 unknown
13:24 69.8 °F 51.8 °F 30.2 in ESE 7.5 mph 14.3 mph 56% 0 in 796.00 W/m2 unknown
13:29 69.8 °F 51.8 °F 30.2 in ESE 11.8 mph 16.2 mph 56% 0 in 796.00 W/m2 unknown
13:34 69.8 °F 53.6 °F 30.2 in ESE 9.3 mph 16.2 mph 56% 0 in 754.00 W/m2 unknown
13:39 69.8 °F 53.6 °F 30.2 in SE 9.9 mph 11.8 mph 54% 0 in 752.00 W/m2 unknown
13:44 69.8 °F 51.8 °F 30.2 in ESE 9.9 mph 14.3 mph 54% 0 in 724.00 W/m2 unknown
13:49 69.8 °F 51.8 °F 30.2 in SE 8.1 mph 14.3 mph 54% 0 in 715.00 W/m2 unknown
13:54 69.8 °F 53.6 °F 30.2 in SE 6.8 mph 9.3 mph 55% 0 in 715.00 W/m2 unknown
13:59 69.8 °F 53.6 °F 30.2 in SE 7.5 mph 11.8 mph 55% 0 in 735.00 W/m2 unknown
14:04 69.8 °F 53.6 °F 30.2 in SE 10.6 mph 14.3 mph 55% 0 in 761.00 W/m2 unknown
14:09 69.8 °F 51.8 °F 30.2 in ESE 11.2 mph 14.3 mph 53% 0 in 761.00 W/m2 unknown
14:14 69.8 °F 51.8 °F 30.2 in ESE 11.2 mph 14.9 mph 53% 0 in 824.00 W/m2 unknown
14:19 69.8 °F 51.8 °F 30.2 in ESE 13.7 mph 21.1 mph 53% 0 in 865.00 W/m2 unknown
14:24 69.8 °F 51.8 °F 30.2 in ESE 13 mph 21.1 mph 51% 0 in 809.00 W/m2 unknown
14:29 69.8 °F 50 °F 30.2 in ESE 11.2 mph 16.2 mph 51% 0 in 236.00 W/m2 unknown
14:34 68 °F 51.8 °F 30.2 in ESE 8.7 mph 14.3 mph 54% 0 in 204.00 W/m2 unknown
14:39 69.8 °F 51.8 °F 30.2 in East 9.9 mph 14.3 mph 55% 0 in 418.00 W/m2 unknown
14:44 69.8 °F 51.8 °F 30.2 in East 12.4 mph 16.2 mph 53% 0 in 710.00 W/m2 unknown
14:49 69.8 °F 50 °F 30.2 in ESE 11.2 mph 17.4 mph 50% 0 in 696.00 W/m2 unknown
14:54 69.8 °F 50 °F 30.2 in ESE 9.9 mph 16.8 mph 50% 0 in 694.00 W/m2 unknown
14:59 69.8 °F 50 °F 30.2 in East 10.6 mph 16.2 mph 50% 0 in 645.00 W/m2 unknown
15:04 69.8 °F 50 °F 30.1 in East 11.2 mph 16.2 mph 49% 0 in 636.00 W/m2 unknown
15:09 69.8 °F 50 °F 30.1 in East 11.8 mph 14.9 mph 49% 0 in 631.00 W/m2 unknown
15:14 69.8 °F 48.2 °F 30.1 in East 10.6 mph 16.2 mph 47% 0 in 631.00 W/m2 unknown
15:19 69.8 °F 48.2 °F 30.1 in East 10.6 mph 16.2 mph 46% 0 in 612.00 W/m2 unknown
15:24 69.8 °F 50 °F 30.1 in ESE 9.3 mph 13 mph 47% 0 in 601.00 W/m2 unknown
15:29 69.8 °F 48.2 °F 30.1 in SE 8.7 mph 14.9 mph 46% 0 in 605.00 W/m2 unknown
15:34 71.6 °F 50 °F 30.1 in ESE 8.1 mph 14.9 mph 47% 0 in 598.00 W/m2 unknown
15:39 71.6 °F 48.2 °F 30.1 in ESE 8.7 mph 14.9 mph 46% 0 in 598.00 W/m2 unknown
15:44 71.6 °F 50 °F 30.1 in ESE 7.5 mph 11.8 mph 47% 0 in 589.00 W/m2 unknown
15:49 71.6 °F 50 °F 30.1 in East 9.9 mph 17.4 mph 47% 0 in 566.00 W/m2 unknown
15:54 69.8 °F 48.2 °F 30.1 in ESE 8.7 mph 16.8 mph 46% 0 in 547.00 W/m2 unknown
15:59 71.6 °F 48.2 °F 30.1 in ESE 9.9 mph 16.2 mph 46% 0 in 536.00 W/m2 unknown
16:04 69.8 °F 48.2 °F 30.1 in East 9.9 mph 16.2 mph 46% 0 in 524.00 W/m2 unknown
16:09 69.8 °F 48.2 °F 30.1 in East 9.9 mph 16.2 mph 46% 0 in 520.00 W/m2 unknown
16:14 69.8 °F 48.2 °F 30.1 in East 7.5 mph 14.9 mph 46% 0 in 88.00 W/m2 unknown
16:19 69.8 °F 50 °F 30.1 in East 7.5 mph 9.3 mph 48% 0 in 490.00 W/m2 unknown
16:24 69.8 °F 48.2 °F 30.1 in ESE 9.3 mph 14.3 mph 46% 0 in 478.00 W/m2 unknown
16:29 69.8 °F 48.2 °F 30.1 in East 6.2 mph 14.3 mph 46% 0 in 457.00 W/m2 unknown
16:34 69.8 °F 48.2 °F 30.1 in East 6.2 mph 8.1 mph 46% 0 in 452.00 W/m2 unknown
16:39 71.6 °F 50 °F 30.1 in East 7.5 mph 10.6 mph 47% 0 in 448.00 W/m2 unknown
16:44 69.8 °F 48.2 °F 30.1 in East 8.1 mph 9.9 mph 46% 0 in 431.00 W/m2 unknown
16:49 69.8 °F 48.2 °F 30.1 in East 7.5 mph 10.6 mph 47% 0 in 422.00 W/m2 unknown
16:54 69.8 °F 48.2 °F 30.1 in East 7.5 mph 10.6 mph 47% 0 in 388.00 W/m2 unknown
16:56 69.8 °F 48.2 °F 30.1 in SE 6.8 mph 9.9 mph 46% 0 in 278.00 W/m2 unknown
18:59 64.4 °F 48.2 °F 30.1 in ESE 3.1 mph 4.3 mph 55% 0 in 9.00 W/m2 unknown
19:04 64.4 °F 48.2 °F 30.1 in ESE 4.3 mph 6.8 mph 55% 0 in 9.00 W/m2 unknown
19:09 64.4 °F 48.2 °F 30.1 in ESE 3.7 mph 6.8 mph 56% 0 in 5.00 W/m2 unknown
19:14 62.6 °F 48.2 °F 30.1 in ESE 3.1 mph 5 mph 57% 0 in 5.00 W/m2 unknown
19:19 62.6 °F 48.2 °F 30.1 in ESE 1.9 mph 3.1 mph 58% 0 in 0.00 W/m2 unknown
19:24 62.6 °F 48.2 °F 30.1 in East 2.5 mph 3.7 mph 58% 0 in 0.00 W/m2 unknown
19:29 62.6 °F 48.2 °F 30.1 in ESE 2.5 mph 3.7 mph 60% 0 in 0.00 W/m2 unknown
19:34 62.6 °F 48.2 °F 30.1 in ESE 2.5 mph 3.7 mph 61% 0 in 0.00 W/m2 unknown
19:39 60.8 °F 48.2 °F 30.2 in East 2.5 mph 3.7 mph 61% 0 in 0.00 W/m2 unknown
19:44 60.8 °F 48.2 °F 30.2 in East 3.1 mph 5 mph 61% 0 in 0.00 W/m2 unknown
19:49 60.8 °F 48.2 °F 30.2 in ESE 3.1 mph 5 mph 61% 0 in 0.00 W/m2 unknown
19:54 60.8 °F 48.2 °F 30.2 in ESE 2.5 mph 4.3 mph 61% 0 in 0.00 W/m2 unknown
19:59 60.8 °F 48.2 °F 30.2 in ESE 3.1 mph 5 mph 62% 0 in 0.00 W/m2 unknown
20:04 60.8 °F 46.4 °F 30.2 in East 3.1 mph 5 mph 62% 0 in 0.00 W/m2 unknown
20:09 60.8 °F 46.4 °F 30.2 in ESE 3.1 mph 5 mph 62% 0 in 0.00 W/m2 unknown
20:14 60.8 °F 46.4 °F 30.2 in East 2.5 mph 5 mph 62% 0 in 0.00 W/m2 unknown
20:19 60.8 °F 46.4 °F 30.2 in ENE 3.1 mph 3.7 mph 62% 0 in 0.00 W/m2 unknown
20:24 60.8 °F 46.4 °F 30.2 in ENE 3.1 mph 5 mph 61% 0 in 0.00 W/m2 unknown
20:29 60.8 °F 46.4 °F 30.2 in East 2.5 mph 5 mph 63% 0 in 0.00 W/m2 unknown
20:34 59 °F 48.2 °F 30.2 in East 1.9 mph 3.7 mph 64% 0 in 0.00 W/m2 unknown
20:39 59 °F 46.4 °F 30.2 in East 3.1 mph 5 mph 64% 0 in 0.00 W/m2 unknown
20:44 59 °F 46.4 °F 30.2 in East 3.1 mph 5 mph 63% 0 in 0.00 W/m2 unknown
20:49 59 °F 46.4 °F 30.2 in ENE 3.1 mph 5 mph 64% 0 in 0.00 W/m2 unknown
20:54 59 °F 46.4 °F 30.2 in East 2.5 mph 3.7 mph 64% 0 in 0.00 W/m2 unknown
20:59 59 °F 46.4 °F 30.2 in East 1.9 mph 3.7 mph 66% 0 in 0.00 W/m2 unknown
21:04 59 °F 46.4 °F 30.2 in East 2.5 mph 5 mph 66% 0 in 0.00 W/m2 unknown
21:09 59 °F 46.4 °F 30.2 in East 3.1 mph 5 mph 66% 0 in 0.00 W/m2 unknown
21:14 59 °F 46.4 °F 30.2 in East 2.5 mph 5 mph 66% 0 in 0.00 W/m2 unknown
21:19 59 °F 46.4 °F 30.2 in East 2.5 mph 3.7 mph 67% 0 in 0.00 W/m2 unknown
21:24 59 °F 46.4 °F 30.2 in ENE 3.1 mph 3.7 mph 66% 0 in 0.00 W/m2 unknown
21:29 57.2 °F 46.4 °F 30.2 in ENE 2.5 mph 3.7 mph 67% 0 in 0.00 W/m2 unknown
21:34 57.2 °F 46.4 °F 30.2 in East 2.5 mph 5 mph 67% 0 in 0.00 W/m2 unknown
21:39 57.2 °F 46.4 °F 30.2 in East 3.1 mph 5 mph 67% 0 in 0.00 W/m2 unknown
21:44 57.2 °F 46.4 °F 30.2 in East 3.7 mph 5 mph 67% 0 in 0.00 W/m2 unknown
21:49 57.2 °F 46.4 °F 30.2 in East 2.5 mph 5 mph 67% 0 in 0.00 W/m2 unknown
21:54 57.2 °F 46.4 °F 30.2 in East 1.9 mph 3.7 mph 68% 0 in 0.00 W/m2 unknown
21:59 57.2 °F 46.4 °F 30.2 in East 1.9 mph 3.7 mph 68% 0 in 0.00 W/m2 unknown
22:04 57.2 °F 46.4 °F 30.2 in East 1.2 mph 3.7 mph 69% 0 in 0.00 W/m2 unknown
22:09 57.2 °F 46.4 °F 30.2 in ESE 1.9 mph 3.7 mph 69% 0 in 0.00 W/m2 unknown
22:14 57.2 °F 46.4 °F 30.2 in ESE 2.5 mph 3.7 mph 69% 0 in 0.00 W/m2 unknown
22:19 57.2 °F 46.4 °F 30.2 in East 2.5 mph 5 mph 69% 0 in 0.00 W/m2 unknown
22:24 57.2 °F 46.4 °F 30.2 in East 3.1 mph 5 mph 68% 0 in 0.00 W/m2 unknown
22:29 57.2 °F 46.4 °F 30.2 in ENE 2.5 mph 5 mph 68% 0 in 0.00 W/m2 unknown
22:34 57.2 °F 46.4 °F 30.2 in ENE 1.9 mph 3.7 mph 69% 0 in 0.00 W/m2 unknown
22:39 57.2 °F 46.4 °F 30.2 in NE 3.1 mph 3.7 mph 70% 0 in 0.00 W/m2 unknown
22:44 55.4 °F 46.4 °F 30.2 in ENE 2.5 mph 3.7 mph 70% 0 in 0.00 W/m2 unknown
22:49 55.4 °F 46.4 °F 30.2 in ENE 2.5 mph 3.7 mph 70% 0 in 0.00 W/m2 unknown
22:54 55.4 °F 46.4 °F 30.2 in ENE 2.5 mph 3.7 mph 71% 0 in 0.00 W/m2 unknown
22:59 55.4 °F 46.4 °F 30.2 in ENE 1.9 mph 3.7 mph 72% 0 in 0.00 W/m2 unknown
23:04 55.4 °F 46.4 °F 30.2 in ENE 1.9 mph 3.1 mph 72% 0 in 0.00 W/m2 unknown
23:09 55.4 °F 46.4 °F 30.2 in NE 3.1 mph 3.7 mph 71% 0 in 0.00 W/m2 unknown
23:14 55.4 °F 46.4 °F 30.2 in NE 3.1 mph 3.7 mph 73% 0 in 0.00 W/m2 unknown
23:19 55.4 °F 46.4 °F 30.2 in NE 3.1 mph 3.7 mph 74% 0 in 0.00 W/m2 unknown
23:24 55.4 °F 46.4 °F 30.2 in NE 3.1 mph 3.7 mph 74% 0 in 0.00 W/m2 unknown
23:29 55.4 °F 46.4 °F 30.2 in NNE 3.1 mph 3.7 mph 75% 0 in 0.00 W/m2 unknown
23:34 53.6 °F 46.4 °F 30.2 in NNE 2.5 mph 3.7 mph 75% 0 in 0.00 W/m2 unknown
23:39 53.6 °F 46.4 °F 30.2 in NNE 2.5 mph 3.7 mph 75% 0 in 0.00 W/m2 unknown
23:44 53.6 °F 46.4 °F 30.2 in NNE 1.9 mph 3.7 mph 75% 0 in 0.00 W/m2 unknown
23:49 53.6 °F 46.4 °F 30.2 in NNE 2.5 mph 3.7 mph 74% 0 in 0.00 W/m2 unknown
23:54 53.6 °F 46.4 °F 30.2 in NNE 1.9 mph 3.7 mph 75% 0 in 0.00 W/m2 unknown
23:59 53.6 °F 46.4 °F 30.2 in NNE 2.5 mph 3.7 mph 75% 0 in 0.00 W/m2 unknown
Stazione Meteorologica MeteoMincio Rivalta s/M (MN)
Con i complimenti di Weather Underground - 4 mb



METEO PILLOLE
La temperatura più bassa in assoluto
Vostok - Antartide
il 21 luglio 1983 presso la stazione russa di Vostok 3420m slm venne registrata la temperatura esterna di -89,2° C.
Share

Non seguire questo link o sarai bannato dal sito!